Santa Rosa, NM

11:58 PM MDT on July 25, 2016 (GMT -0600)
Tucumcari Municipal | | Change Station

Elev 4065 ft 35.18 °N, 103.60 °W | Updated 5 minutes ago

Light Rain
Light Rain
69 °F
Feels Like 69 °F
N
13
Wind Variable Wind from SW

Today
High -- | Low -- °F
--% Chance of Precip.
Yesterday
High -- | Low -- °F
Precip. -- in
Pressure 29.98 in
Visibility 10.0 miles
Clouds Mostly Cloudy 12000 ft
Dew Point 64 °F
Humidity 84%
Rainfall 0.66 in
Snow Depth Not available.
6:03 AM 8:06 PM
Waning Gibbous, 58% visible
METAR KTCC 260553Z AUTO 23011KT 10SM -RA BKN120 21/18 A3018 RMK AO2 SLP152 P0002 60066 T02060178 10272 20200 58014
Pressure 29.98 in
Visibility 10.0 miles
Clouds Mostly Cloudy 12000 ft
Dew Point 64 °F
Humidity 84%
Rainfall 0.66 in
Snow Depth Not available.
6:03 AM 8:06 PM
Waning Gibbous, 58% visible
METAR KTCC 260553Z AUTO 23011KT 10SM -RA BKN120 21/18 A3018 RMK AO2 SLP152 P0002 60066 T02060178 10272 20200 58014

10-Day Weather Forecast

Almanac

Astronomy

Jul. 25, 2016 Rise Set
Actual Time
Civil Twilight
Nautical Twilight
Astronomical Twilight
Moon
Length of Visible Light
Length of Day
Tomorrow will be .
, % of the Moon is Illuminated

Today's Extremes

State Highs State Lows

Community

WunderPhotos

Upload Photos

1,927,547 photos uploaded!

WunderBlog® & News

Nearby

Air Quality

  Air Quality AQ Index Pollutant
Not available.

Snow Depth

Station Depth Elevation

Earthquake Activity

City Distance Mag. Time & Date
Minimum magnitude displayed is 2.5.

Coastal Water Temperatures

Place Temperature

Stations

Nearby Weather Stations

Station Location Temp. Windchill Dew Point Humidity Wind Precip. Elev Updated Type
                   

Watches & Warnings

There are currently no watches in effect.